Time;durP1;ratioP1;P1;durP2;ratioP2;P2;SDS_P1;SDS_P2;PMS_P1;PMS_P2;Temp;Humidity;BMP_temperature;BMP_pressure;BME280_temperature;BME280_humidity;BME280_pressure;Samples;Min_cycle;Max_cycle;Signal;HPM_P1;HPM_P2
2021/10/26 00:00:11;;;;;;;7.20;4.30;;;5.00;96.20;;;;;;5027950;28;20498;-84
2021/10/26 00:02:39;;;;;;;8.70;4.50;;;4.90;96.50;;;;;;5032011;28;20389;-87
2021/10/26 00:05:07;;;;;;;6.47;4.30;;;4.90;96.70;;;;;;5033723;28;20635;-87
2021/10/26 00:07:36;;;;;;;6.10;4.27;;;4.90;96.80;;;;;;5026934;28;20230;-87
2021/10/26 00:10:03;;;;;;;5.93;4.50;;;4.90;96.90;;;;;;5030220;28;20202;-87
2021/10/26 00:12:30;;;;;;;5.13;4.53;;;4.90;96.80;;;;;;5028104;28;20218;-87
2021/10/26 00:14:58;;;;;;;5.80;4.37;;;4.90;96.80;;;;;;5035248;28;20661;-86
2021/10/26 00:17:26;;;;;;;5.00;4.50;;;5.00;96.60;;;;;;5035850;28;20226;-87
2021/10/26 00:19:53;;;;;;;9.00;4.53;;;5.10;96.30;;;;;;5035996;28;20198;-86
2021/10/26 00:22:20;;;;;;;6.03;4.60;;;5.00;96.10;;;;;;5031345;28;20257;-84
2021/10/26 00:24:51;;;;;;;6.10;4.70;;;5.10;96.10;;;;;;5028758;28;20278;-86
2021/10/26 00:27:18;;;;;;;5.03;4.43;;;5.10;96.00;;;;;;5024469;28;20242;-86
2021/10/26 00:29:45;;;;;;;8.10;4.83;;;5.00;96.10;;;;;;5027248;28;20580;-86
2021/10/26 00:32:12;;;;;;;5.30;4.40;;;5.00;96.40;;;;;;5032008;28;20698;-86
2021/10/26 00:34:39;;;;;;;7.93;4.47;;;5.00;96.40;;;;;;5031976;28;20207;-86
2021/10/26 00:37:06;;;;;;;7.97;4.43;;;5.00;96.30;;;;;;5031951;28;20233;-86
2021/10/26 00:39:33;;;;;;;5.27;4.77;;;5.00;96.40;;;;;;5030299;28;20195;-86
2021/10/26 00:42:04;;;;;;;4.73;4.23;;;4.90;96.90;;;;;;5029862;28;20229;-86
2021/10/26 00:44:32;;;;;;;6.93;4.87;;;4.90;97.00;;;;;;5028674;28;20201;-86
2021/10/26 00:46:59;;;;;;;5.80;4.53;;;4.90;97.20;;;;;;5032616;28;20248;-86
2021/10/26 00:49:26;;;;;;;5.07;4.30;;;5.00;97.30;;;;;;5035049;28;20202;-86
2021/10/26 00:51:55;;;;;;;6.07;4.50;;;5.10;97.10;;;;;;5035038;28;20222;-86
2021/10/26 00:54:24;;;;;;;5.83;4.37;;;5.20;96.80;;;;;;5034419;28;20222;-86
2021/10/26 00:56:51;;;;;;;5.97;4.70;;;5.20;96.50;;;;;;5030320;28;20304;-86
2021/10/26 00:59:20;;;;;;;6.50;4.07;;;5.30;96.50;;;;;;5028839;28;20198;-86
2021/10/26 01:01:47;;;;;;;6.77;4.20;;;5.20;96.30;;;;;;5030006;28;20284;-86
2021/10/26 01:04:14;;;;;;;8.10;4.57;;;5.30;96.50;;;;;;5033994;28;20198;-86
2021/10/26 01:06:41;;;;;;;4.70;4.10;;;5.30;96.30;;;;;;5034172;28;20222;-86
2021/10/26 01:09:08;;;;;;;5.77;4.50;;;5.30;96.20;;;;;;5034352;28;20570;-86
2021/10/26 01:11:37;;;;;;;5.60;4.50;;;5.30;96.00;;;;;;5032054;28;20230;-86
2021/10/26 01:14:04;;;;;;;4.67;4.17;;;5.30;96.00;;;;;;5038298;28;20222;-86
2021/10/26 01:16:34;;;;;;;5.70;4.33;;;5.20;95.90;;;;;;5039829;28;20588;-86
2021/10/26 01:19:02;;;;;;;7.80;4.57;;;5.20;95.90;;;;;;5031125;28;20239;-86
2021/10/26 01:21:30;;;;;;;5.60;4.40;;;5.20;95.90;;;;;;5027839;28;20230;-86
2021/10/26 01:23:58;;;;;;;4.53;4.07;;;5.20;95.70;;;;;;5032501;28;20658;-86
2021/10/26 01:26:24;;;;;;;4.57;4.07;;;5.10;95.70;;;;;;5028574;28;20226;-86
2021/10/26 01:28:51;;;;;;;6.70;4.67;;;5.10;95.70;;;;;;5028598;28;20237;-86
2021/10/26 01:31:18;;;;;;;6.33;4.20;;;5.10;95.60;;;;;;5027634;28;20689;-86
2021/10/26 01:33:45;;;;;;;5.17;4.47;;;5.00;95.70;;;;;;5029687;28;20206;-86
2021/10/26 01:36:14;;;;;;;8.37;4.73;;;5.00;95.90;;;;;;5039578;28;20202;-86
2021/10/26 01:38:42;;;;;;;5.00;4.13;;;4.90;95.90;;;;;;5024935;28;20322;-86
2021/10/26 01:41:09;;;;;;;6.07;4.43;;;4.90;95.90;;;;;;5028797;28;20205;-86
2021/10/26 01:43:37;;;;;;;5.90;4.60;;;5.00;95.70;;;;;;5030855;28;20486;-86
2021/10/26 01:46:04;;;;;;;4.87;3.90;;;4.90;95.50;;;;;;5023774;28;20280;-86
2021/10/26 01:48:31;;;;;;;6.70;4.33;;;4.90;95.60;;;;;;5033496;28;20206;-86
2021/10/26 01:51:00;;;;;;;5.93;4.63;;;4.80;95.90;;;;;;5029062;28;20203;-86
2021/10/26 01:53:27;;;;;;;5.40;4.50;;;4.80;95.90;;;;;;5030660;28;20651;-86
2021/10/26 01:55:56;;;;;;;4.63;4.13;;;4.90;96.00;;;;;;5030422;28;20238;-86
2021/10/26 01:58:23;;;;;;;6.43;4.17;;;4.90;95.90;;;;;;5029288;28;20230;-86
2021/10/26 02:00:50;;;;;;;5.17;4.37;;;4.80;96.00;;;;;;5029379;28;20698;-86
2021/10/26 02:03:17;;;;;;;5.23;4.27;;;4.80;95.80;;;;;;5029284;28;20698;-86
2021/10/26 02:05:44;;;;;;;5.17;4.10;;;4.80;95.60;;;;;;5027098;28;20210;-86
2021/10/26 02:08:11;;;;;;;4.60;3.80;;;4.70;95.70;;;;;;5027664;28;20218;-86
2021/10/26 02:10:38;;;;;;;4.70;4.10;;;4.60;95.70;;;;;;5029115;28;20202;-86
2021/10/26 02:13:06;;;;;;;4.10;3.63;;;4.50;95.80;;;;;;5031594;28;20222;-86
2021/10/26 02:15:34;;;;;;;6.00;4.80;;;4.50;95.90;;;;;;5026089;28;20207;-85
2021/10/26 02:18:01;;;;;;;5.53;4.30;;;4.50;96.10;;;;;;5031216;28;20222;-85
2021/10/26 02:20:29;;;;;;;5.50;4.20;;;4.40;96.00;;;;;;5023006;28;20541;-86
2021/10/26 02:22:56;;;;;;;4.60;3.53;;;4.40;96.20;;;;;;5031839;28;20305;-86
2021/10/26 02:25:23;;;;;;;4.30;3.80;;;4.40;96.30;;;;;;5027597;28;20199;-86
2021/10/26 02:27:50;;;;;;;4.00;3.60;;;4.40;96.20;;;;;;5029129;28;20234;-85
2021/10/26 02:30:19;;;;;;;4.97;3.80;;;4.50;95.90;;;;;;5028192;28;20226;-86
2021/10/26 02:32:46;;;;;;;5.27;3.93;;;4.50;95.80;;;;;;5021397;28;20231;-86
2021/10/26 02:35:13;;;;;;;3.87;3.40;;;4.40;95.90;;;;;;5031034;28;20218;-85
2021/10/26 02:37:39;;;;;;;4.60;3.80;;;4.40;95.90;;;;;;5026313;28;20344;-85
2021/10/26 02:40:08;;;;;;;6.20;3.80;;;4.40;95.80;;;;;;5031034;28;20198;-86
2021/10/26 02:42:35;;;;;;;6.87;3.83;;;4.30;95.90;;;;;;5030796;28;20228;-85
2021/10/26 02:45:02;;;;;;;5.37;3.80;;;4.30;95.80;;;;;;5029689;28;20287;-85
2021/10/26 02:47:31;;;;;;;4.60;3.67;;;4.30;95.80;;;;;;5031176;28;20223;-85
2021/10/26 02:49:58;;;;;;;4.53;3.67;;;4.30;95.70;;;;;;5034102;28;20199;-85
2021/10/26 02:52:25;;;;;;;3.90;3.40;;;4.30;95.90;;;;;;5042651;28;20694;-83
2021/10/26 02:54:52;;;;;;;5.17;3.77;;;4.30;95.90;;;;;;5037879;28;20210;-83
2021/10/26 02:57:19;;;;;;;4.67;3.77;;;4.30;95.80;;;;;;5043676;28;20230;-84
2021/10/26 02:59:46;;;;;;;4.17;3.50;;;4.20;95.90;;;;;;5040510;28;20199;-85
2021/10/26 03:02:13;;;;;;;3.90;3.30;;;4.20;95.80;;;;;;5039625;28;20226;-85
2021/10/26 03:04:42;;;;;;;4.13;3.50;;;4.20;95.90;;;;;;5033492;28;20666;-84
2021/10/26 03:07:09;;;;;;;4.20;3.30;;;4.30;95.70;;;;;;5026846;28;20228;-84
2021/10/26 03:09:36;;;;;;;3.83;3.20;;;4.20;95.70;;;;;;5028344;28;20207;-84
2021/10/26 03:12:02;;;;;;;4.43;3.30;;;4.20;96.20;;;;;;5029334;28;20218;-84
2021/10/26 03:14:30;;;;;;;4.47;3.53;;;4.30;95.90;;;;;;5028635;28;20205;-84
2021/10/26 03:16:56;;;;;;;6.13;3.10;;;4.20;95.70;;;;;;5029261;28;20219;-84
2021/10/26 03:19:24;;;;;;;4.37;3.40;;;4.10;95.90;;;;;;5029149;28;20221;-84
2021/10/26 03:21:52;;;;;;;3.97;3.57;;;4.10;95.80;;;;;;5028493;28;20693;-84
2021/10/26 03:24:19;;;;;;;3.67;3.13;;;4.10;96.10;;;;;;5029053;28;20256;-84
2021/10/26 03:26:46;;;;;;;4.67;3.07;;;4.20;96.00;;;;;;5034104;28;20223;-84
2021/10/26 03:29:13;;;;;;;4.57;3.27;;;4.10;95.90;;;;;;5031091;28;20202;-84
2021/10/26 03:31:40;;;;;;;3.83;3.00;;;4.10;95.90;;;;;;5026688;28;20226;-84
2021/10/26 03:34:08;;;;;;;3.90;3.20;;;4.20;95.60;;;;;;5026069;28;20205;-84
2021/10/26 03:36:35;;;;;;;4.83;3.70;;;4.20;95.20;;;;;;5027231;28;20316;-84
2021/10/26 03:39:04;;;;;;;5.30;3.60;;;4.20;95.70;;;;;;5029292;28;20231;-84
2021/10/26 03:41:31;;;;;;;3.73;3.23;;;4.10;95.40;;;;;;5028268;28;20228;-84
2021/10/26 03:43:58;;;;;;;4.63;3.47;;;4.10;95.50;;;;;;5029522;28;20194;-84
2021/10/26 03:46:25;;;;;;;3.97;3.20;;;4.10;95.50;;;;;;5029566;28;21042;-84
2021/10/26 03:48:51;;;;;;;5.23;3.57;;;4.00;95.80;;;;;;5033035;28;20205;-83
2021/10/26 03:51:18;;;;;;;4.73;3.60;;;4.00;95.80;;;;;;5027388;28;20697;-84
2021/10/26 03:53:45;;;;;;;4.60;3.23;;;4.00;95.90;;;;;;5035966;28;20201;-83
2021/10/26 03:56:14;;;;;;;5.53;3.40;;;4.00;95.90;;;;;;5035734;28;20198;-83
2021/10/26 03:58:42;;;;;;;3.63;3.20;;;4.00;96.00;;;;;;5040014;28;20226;-83
2021/10/26 04:01:11;;;;;;;5.00;3.50;;;4.10;95.70;;;;;;5037246;28;20203;-84
2021/10/26 04:03:39;;;;;;;4.20;3.00;;;4.10;95.60;;;;;;5037669;28;20206;-84
2021/10/26 04:06:08;;;;;;;5.30;3.33;;;4.20;95.70;;;;;;5040818;28;20199;-84
2021/10/26 04:08:39;;;;;;;3.93;3.20;;;4.20;95.50;;;;;;5036823;28;20214;-84
2021/10/26 04:11:12;;;;;;;4.57;3.60;;;4.20;95.20;;;;;;5024033;28;20191;-84
2021/10/26 04:13:41;;;;;;;4.63;3.47;;;4.20;95.30;;;;;;5036391;28;20640;-84
2021/10/26 04:16:08;;;;;;;4.60;3.17;;;4.20;95.00;;;;;;5031101;28;20225;-84
2021/10/26 04:18:34;;;;;;;4.43;3.23;;;4.10;95.40;;;;;;5028690;28;20225;-84
2021/10/26 04:21:02;;;;;;;3.70;3.20;;;4.00;95.60;;;;;;5036832;28;20201;-84
2021/10/26 04:23:30;;;;;;;3.63;2.87;;;4.00;95.70;;;;;;5032870;28;20278;-84
2021/10/26 04:25:57;;;;;;;4.07;2.90;;;4.10;95.60;;;;;;5034060;28;20194;-84
2021/10/26 04:28:24;;;;;;;4.43;3.20;;;4.00;95.40;;;;;;5040507;28;20306;-84
2021/10/26 04:30:53;;;;;;;3.90;2.90;;;4.10;95.60;;;;;;5027203;28;20199;-85
2021/10/26 04:33:21;;;;;;;5.07;3.23;;;4.10;95.60;;;;;;5031446;28;20226;-85
2021/10/26 04:35:48;;;;;;;4.77;2.83;;;4.20;95.50;;;;;;5036752;28;20205;-85
2021/10/26 04:38:15;;;;;;;3.30;2.80;;;4.20;95.70;;;;;;5028422;28;20231;-85
2021/10/26 04:40:42;;;;;;;3.40;3.10;;;4.30;95.30;;;;;;5026293;28;20202;-85
2021/10/26 04:43:09;;;;;;;3.63;2.60;;;4.20;95.30;;;;;;5037888;28;20226;-85
2021/10/26 04:45:36;;;;;;;4.73;3.43;;;4.20;95.40;;;;;;5033949;28;20198;-85
2021/10/26 04:48:05;;;;;;;4.60;2.93;;;4.10;95.70;;;;;;5035203;28;20233;-84
2021/10/26 04:50:33;;;;;;;3.87;3.07;;;4.00;95.70;;;;;;5039019;28;20222;-84
2021/10/26 04:53:00;;;;;;;5.57;3.10;;;3.90;96.00;;;;;;5039573;28;20238;-85
2021/10/26 04:55:27;;;;;;;3.87;2.93;;;3.90;96.10;;;;;;5037339;28;20202;-84
2021/10/26 04:57:54;;;;;;;3.93;2.93;;;4.00;95.90;;;;;;5038206;28;20219;-85
2021/10/26 05:00:24;;;;;;;4.90;3.13;;;4.10;95.80;;;;;;5042131;28;20205;-85
2021/10/26 05:02:51;;;;;;;4.27;3.07;;;4.10;95.90;;;;;;5033605;28;20222;-85
2021/10/26 05:05:19;;;;;;;3.53;3.00;;;4.10;95.90;;;;;;5034119;28;20286;-84
2021/10/26 05:07:47;;;;;;;4.53;3.17;;;4.20;96.00;;;;;;5035326;28;20258;-85
2021/10/26 05:10:13;;;;;;;3.57;2.97;;;4.10;96.10;;;;;;5033610;28;20199;-85
2021/10/26 05:12:41;;;;;;;4.40;3.20;;;4.20;95.80;;;;;;5033667;28;20227;-85
2021/10/26 05:15:08;;;;;;;5.00;3.43;;;4.30;95.70;;;;;;5033006;28;20210;-85
2021/10/26 05:17:37;;;;;;;4.13;3.27;;;4.40;95.60;;;;;;5036223;28;20218;-86
2021/10/26 05:20:05;;;;;;;6.07;3.70;;;4.40;95.40;;;;;;5027846;28;20254;-88
2021/10/26 05:22:34;;;;;;;4.37;3.63;;;4.30;95.20;;;;;;5035560;28;20232;-86
2021/10/26 05:25:01;;;;;;;4.17;3.40;;;4.30;95.40;;;;;;5040081;28;20282;-86
2021/10/26 05:27:28;;;;;;;4.77;3.47;;;4.20;95.50;;;;;;5034323;28;20227;-87
2021/10/26 05:29:55;;;;;;;6.03;3.60;;;4.20;95.70;;;;;;5037660;28;20195;-86
2021/10/26 05:32:24;;;;;;;4.80;3.50;;;4.10;95.80;;;;;;5036977;28;20217;-86
2021/10/26 05:34:51;;;;;;;4.03;3.60;;;4.20;95.90;;;;;;5030747;28;20203;-87
2021/10/26 05:37:18;;;;;;;7.00;3.90;;;4.30;95.70;;;;;;5037141;28;20305;-87
2021/10/26 05:39:47;;;;;;;5.67;3.93;;;4.30;95.70;;;;;;5038502;28;20233;-86
2021/10/26 05:42:14;;;;;;;5.50;3.77;;;4.30;95.60;;;;;;5034060;28;20763;-86
2021/10/26 05:44:41;;;;;;;5.10;3.90;;;4.30;95.50;;;;;;5035212;28;20205;-86
2021/10/26 05:47:08;;;;;;;4.70;3.87;;;4.30;95.40;;;;;;5036174;28;20222;-86
2021/10/26 05:49:36;;;;;;;6.87;3.70;;;4.20;95.60;;;;;;5037374;28;20199;-86
2021/10/26 05:52:02;;;;;;;5.17;3.90;;;4.20;96.00;;;;;;5034534;28;20228;-85
2021/10/26 05:54:30;;;;;;;5.37;4.13;;;4.30;95.90;;;;;;5031986;28;20203;-85
2021/10/26 05:56:59;;;;;;;6.00;4.20;;;4.30;95.80;;;;;;5030649;28;20230;-86
2021/10/26 05:59:29;;;;;;;5.17;4.00;;;4.40;95.80;;;;;;5022966;28;20229;-87
2021/10/26 06:01:56;;;;;;;5.83;4.10;;;4.40;95.80;;;;;;5024724;28;20222;-86
2021/10/26 06:04:24;;;;;;;5.67;3.90;;;4.40;96.00;;;;;;5033139;28;20195;-86
2021/10/26 06:06:51;;;;;;;5.77;4.13;;;4.40;96.10;;;;;;5037346;28;20306;-86
2021/10/26 06:09:19;;;;;;;5.70;4.20;;;4.50;96.00;;;;;;5033030;28;20294;-86
2021/10/26 06:11:48;;;;;;;7.60;4.47;;;4.50;95.80;;;;;;5034220;28;20246;-86
2021/10/26 06:14:16;;;;;;;5.90;4.23;;;4.60;95.60;;;;;;5033551;28;20222;-86
2021/10/26 06:16:45;;;;;;;5.50;4.13;;;4.60;95.60;;;;;;5035073;28;20233;-86
2021/10/26 06:19:12;;;;;;;7.93;4.57;;;4.80;95.70;;;;;;5035054;28;20583;-86
2021/10/26 06:21:39;;;;;;;5.83;4.20;;;4.90;95.50;;;;;;5034434;28;20242;-90
2021/10/26 06:24:06;;;;;;;6.23;4.63;;;5.00;95.40;;;;;;5046167;28;20689;-86
2021/10/26 06:26:34;;;;;;;5.60;4.03;;;5.20;95.10;;;;;;5041557;28;20221;-88
2021/10/26 06:29:01;;;;;;;8.13;4.13;;;5.30;95.10;;;;;;5032103;28;20195;-90
2021/10/26 06:31:30;;;;;;;4.90;3.60;;;5.50;95.20;;;;;;5020418;28;20223;-90
2021/10/26 06:33:57;;;;;;;6.20;4.20;;;5.70;95.20;;;;;;5023853;28;20201;-89
2021/10/26 06:36:25;;;;;;;6.53;4.10;;;5.70;95.20;;;;;;5035600;28;20230;-90
2021/10/26 06:38:52;;;;;;;6.07;4.70;;;5.90;95.00;;;;;;5028956;28;20218;-90
2021/10/26 06:41:20;;;;;;;5.83;4.27;;;5.90;94.90;;;;;;5027686;28;20762;-89
2021/10/26 06:43:49;;;;;;;6.03;4.20;;;6.00;94.70;;;;;;5034290;28;20210;-90
2021/10/26 06:46:16;;;;;;;7.43;4.57;;;6.10;94.70;;;;;;5025923;28;20198;-90
2021/10/26 06:48:47;;;;;;;7.07;4.37;;;6.20;94.70;;;;;;5032006;28;20203;-90
2021/10/26 06:51:14;;;;;;;7.80;4.17;;;6.30;94.70;;;;;;5030580;28;20202;-88
2021/10/26 06:53:41;;;;;;;9.00;4.77;;;6.40;94.90;;;;;;5028905;28;20252;-87
2021/10/26 06:56:14;;;;;;;7.70;4.83;;;6.40;94.90;;;;;;5031989;28;20302;-89
2021/10/26 06:58:41;;;;;;;9.80;4.90;;;6.50;94.70;;;;;;5033145;28;20226;-89
2021/10/26 07:01:09;;;;;;;8.67;5.43;;;6.50;94.60;;;;;;5037563;28;20289;-88
2021/10/26 07:03:37;;;;;;;9.23;5.23;;;6.60;94.70;;;;;;5024968;28;21090;-89
2021/10/26 07:06:06;;;;;;;8.90;5.47;;;6.70;94.70;;;;;;5035457;28;20205;-91
2021/10/26 07:08:34;;;;;;;7.47;5.27;;;6.80;94.30;;;;;;5034630;28;20659;-88
2021/10/26 07:11:01;;;;;;;8.20;4.63;;;6.90;93.90;;;;;;5044193;28;20573;-86
2021/10/26 07:13:28;;;;;;;8.70;4.80;;;6.80;93.80;;;;;;5029000;28;20214;-88
2021/10/26 07:15:55;;;;;;;6.07;4.27;;;6.90;93.80;;;;;;5040333;28;20780;-87
2021/10/26 07:18:22;;;;;;;5.70;4.57;;;6.90;93.80;;;;;;5036507;28;20305;-87
2021/10/26 07:20:50;;;;;;;7.67;4.87;;;6.90;93.70;;;;;;5035225;28;20206;-87
2021/10/26 07:23:18;;;;;;;5.87;3.60;;;6.90;93.80;;;;;;5030014;28;20305;-87
2021/10/26 07:25:48;;;;;;;5.27;4.17;;;7.00;94.00;;;;;;5036438;28;20195;-87
2021/10/26 07:28:15;;;;;;;6.10;3.40;;;7.00;93.80;;;;;;5031707;28;20249;-87
2021/10/26 07:30:45;;;;;;;6.80;4.17;;;7.00;93.70;;;;;;5034816;28;20339;-87
2021/10/26 07:33:18;;;;;;;5.33;3.57;;;7.10;93.50;;;;;;5034749;28;20252;-87
2021/10/26 07:35:47;;;;;;;5.77;3.63;;;7.00;93.60;;;;;;5039765;28;20217;-87
2021/10/26 07:38:25;;;;;;;5.53;3.70;;;7.00;93.80;;;;;;5031573;28;20327;-87
2021/10/26 07:40:54;;;;;;;6.17;4.00;;;6.90;94.10;;;;;;5034540;28;20226;-87
2021/10/26 07:43:22;;;;;;;5.60;3.77;;;6.90;94.60;;;;;;5025356;28;20222;-88
2021/10/26 07:45:49;;;;;;;5.20;3.80;;;6.90;94.90;;;;;;5033398;28;20884;-87
2021/10/26 07:48:18;;;;;;;5.30;4.10;;;7.00;95.20;;;;;;5033445;28;20949;-87
2021/10/26 07:50:47;;;;;;;6.22;3.90;;;7.10;95.20;;;;;;5034320;28;20199;-87
2021/10/26 07:53:15;;;;;;;7.00;4.15;;;7.30;94.50;;;;;;5034725;28;20218;-88
2021/10/26 07:55:42;;;;;;;4.40;3.73;;;7.40;94.40;;;;;;5029135;28;20211;-87
2021/10/26 07:58:12;;;;;;;4.78;3.70;;;7.60;94.30;;;;;;5036264;28;20716;-87
2021/10/26 08:00:39;;;;;;;5.20;3.95;;;7.60;94.30;;;;;;5037536;28;20231;-87
2021/10/26 08:03:06;;;;;;;5.05;3.90;;;7.80;94.40;;;;;;5029874;28;20698;-87
2021/10/26 08:05:34;;;;;;;4.55;3.70;;;8.00;94.20;;;;;;5042456;28;20273;-88
2021/10/26 08:08:01;;;;;;;5.03;3.63;;;8.20;93.80;;;;;;5034055;28;20743;-87
2021/10/26 08:10:29;;;;;;;6.65;4.07;;;8.50;92.90;;;;;;5043620;28;20198;-87
2021/10/26 08:12:56;;;;;;;4.63;3.65;;;8.90;91.70;;;;;;5018051;28;20230;-89
2021/10/26 08:18:07;;;;;;;7.18;3.83;;;9.70;90.60;;;;;;5037648;28;20301;-90
2021/10/26 08:20:34;;;;;;;9.00;4.07;;;10.00;87.90;;;;;;5037574;28;20309;-91
2021/10/26 08:23:01;;;;;;;5.85;3.78;;;10.20;86.70;;;;;;5041500;28;20293;-89
2021/10/26 08:25:31;;;;;;;5.25;3.80;;;10.40;84.00;;;;;;5039027;28;20261;-90
2021/10/26 08:27:59;;;;;;;4.28;3.58;;;10.60;82.90;;;;;;5043031;28;20261;-89
2021/10/26 08:30:37;;;;;;;7.35;4.05;;;10.60;83.90;;;;;;5038123;28;20207;-90
2021/10/26 08:33:15;;;;;;;5.90;4.07;;;10.50;85.00;;;;;;5034451;28;20237;-90
2021/10/26 08:35:42;;;;;;;5.85;3.72;;;10.50;85.40;;;;;;5039670;28;20278;-90
2021/10/26 08:38:09;;;;;;;5.28;3.83;;;10.40;86.90;;;;;;5034145;28;20297;-91
2021/10/26 08:40:46;;;;;;;4.50;3.47;;;10.30;88.80;;;;;;5039199;28;20694;-89
2021/10/26 08:43:13;;;;;;;9.85;4.32;;;10.30;90.30;;;;;;5036551;28;20244;-89
2021/10/26 08:45:47;;;;;;;8.15;4.18;;;10.30;90.60;;;;;;5046109;28;20210;-88
2021/10/26 08:48:20;;;;;;;5.30;4.05;;;10.30;91.60;;;;;;5039382;28;20735;-89
2021/10/26 08:50:53;;;;;;;5.18;4.22;;;10.40;92.10;;;;;;5028325;28;20230;-88
2021/10/26 08:53:21;;;;;;;6.70;4.43;;;10.50;92.40;;;;;;5042605;28;20222;-88
2021/10/26 08:55:56;;;;;;;9.90;4.68;;;10.50;92.50;;;;;;5041054;28;20206;-89
2021/10/26 08:58:25;;;;;;;7.35;4.80;;;10.50;92.90;;;;;;5035668;28;20308;-91
2021/10/26 09:00:54;;;;;;;6.28;5.05;;;10.50;93.20;;;;;;5026835;28;20257;-90
2021/10/26 09:03:24;;;;;;;7.28;4.68;;;10.40;93.50;;;;;;5042216;28;20294;-90
2021/10/26 09:05:54;;;;;;;5.68;4.82;;;10.50;94.00;;;;;;5042457;28;20249;-88
2021/10/26 09:08:22;;;;;;;6.75;5.00;;;10.60;93.80;;;;;;5046791;28;20226;-88
2021/10/26 09:10:51;;;;;;;6.82;5.15;;;10.60;93.60;;;;;;5038371;28;20270;-88
2021/10/26 09:22:30;;;;;;;7.63;5.38;;;12.00;91.80;;;;;;5036208;28;20226;-89
2021/10/26 09:27:49;;;;;;;9.48;5.38;;;12.70;89.70;;;;;;5076121;28;20748;-90
2021/10/26 09:30:19;;;;;;;9.90;5.97;;;12.90;88.00;;;;;;5075748;28;20225;-91
2021/10/26 09:32:54;;;;;;;6.80;5.35;;;13.00;87.60;;;;;;5075853;28;20325;-92
2021/10/26 09:35:21;;;;;;;11.30;5.78;;;13.10;86.30;;;;;;5080778;28;20197;-91
2021/10/26 09:37:52;;;;;;;10.88;5.32;;;13.40;84.80;;;;;;5076728;28;20730;-91
2021/10/26 09:40:20;;;;;;;8.65;5.72;;;13.30;84.80;;;;;;5068776;28;20206;-91
2021/10/26 09:42:49;;;;;;;6.97;5.57;;;13.30;84.80;;;;;;5071463;28;20304;-92
2021/10/26 09:45:30;;;;;;;8.20;5.45;;;13.40;86.40;;;;;;5070864;28;20219;-92
2021/10/26 09:48:07;;;;;;;8.60;5.93;;;13.20;87.80;;;;;;5072266;28;20229;-92
2021/10/26 09:50:35;;;;;;;8.85;6.10;;;13.30;87.10;;;;;;5071177;28;20196;-92
2021/10/26 09:53:06;;;;;;;9.07;6.38;;;13.30;85.40;;;;;;5064737;28;20308;-91
2021/10/26 09:55:38;;;;;;;10.45;6.00;;;13.20;86.50;;;;;;5074260;28;20197;-91
2021/10/26 09:58:10;;;;;;;7.82;5.95;;;13.10;87.10;;;;;;5066945;28;20249;-91
2021/10/26 10:00:41;;;;;;;8.38;6.15;;;12.90;88.40;;;;;;5081430;28;20975;-90
2021/10/26 10:03:13;;;;;;;9.40;6.22;;;12.80;90.00;;;;;;5082093;28;20592;-89
2021/10/26 10:05:42;;;;;;;9.05;6.88;;;12.60;90.90;;;;;;5076258;28;20201;-91
2021/10/26 10:08:20;;;;;;;7.38;5.90;;;12.60;90.90;;;;;;5082844;28;20221;-89
2021/10/26 10:10:48;;;;;;;12.23;6.75;;;12.50;91.00;;;;;;5080729;28;20203;-90
2021/10/26 10:13:15;;;;;;;9.25;5.95;;;12.40;91.00;;;;;;5061421;28;20233;-89
2021/10/26 10:15:46;;;;;;;11.60;6.50;;;12.60;91.70;;;;;;5057278;28;20207;-89
2021/10/26 10:18:19;;;;;;;7.72;5.93;;;12.60;90.90;;;;;;5053576;28;20236;-91
2021/10/26 10:23:46;;;;;;;12.18;7.07;;;12.80;91.40;;;;;;5164103;27;20609;-89
2021/10/26 10:26:16;;;;;;;8.23;6.85;;;12.80;90.90;;;;;;5154840;27;20231;-89
2021/10/26 10:28:47;;;;;;;8.27;5.85;;;12.80;91.10;;;;;;5091653;28;20208;-89
2021/10/26 10:31:19;;;;;;;8.88;7.03;;;12.90;91.10;;;;;;5079690;28;20204;-88
2021/10/26 10:33:47;;;;;;;8.10;7.10;;;13.10;91.00;;;;;;5083155;28;20691;-90
2021/10/26 10:36:24;;;;;;;14.32;7.22;;;13.30;90.20;;;;;;5068027;28;20200;-89
2021/10/26 10:38:54;;;;;;;10.25;7.50;;;13.30;89.90;;;;;;5093797;28;20191;-89
2021/10/26 10:41:24;;;;;;;9.20;7.30;;;13.30;88.90;;;;;;5086761;28;20649;-91
2021/10/26 10:43:52;;;;;;;10.63;7.20;;;13.50;88.40;;;;;;5083103;28;20203;-89
2021/10/26 10:46:39;;;;;;;10.20;6.40;;;13.70;87.40;;;;;;5096607;28;20275;-90
2021/10/26 10:49:43;;;;;;;8.13;6.47;;;13.80;85.50;;;;;;5089773;28;20199;-90
2021/10/26 10:52:13;;;;;;;9.40;7.07;;;14.00;85.30;;;;;;5085930;28;20220;-89
2021/10/26 10:54:48;;;;;;;10.60;7.43;;;14.20;82.00;;;;;;5088599;28;20212;-90
2021/10/26 10:57:24;;;;;;;9.77;7.10;;;14.20;80.90;;;;;;5097636;28;20277;-89
2021/10/26 10:59:52;;;;;;;13.50;7.53;;;14.30;82.30;;;;;;5082176;28;20199;-90
2021/10/26 11:02:27;;;;;;;8.80;7.03;;;14.30;81.10;;;;;;5090609;28;20220;-90
2021/10/26 11:04:55;;;;;;;9.02;6.53;;;14.30;81.20;;;;;;5102075;28;20235;-89
2021/10/26 11:07:54;;;;;;;12.77;7.07;;;14.30;80.00;;;;;;5109009;28;20699;-90
2021/10/26 11:10:24;;;;;;;8.30;6.47;;;14.30;80.80;;;;;;5070109;28;20221;-90
2021/10/26 11:12:53;;;;;;;8.05;7.00;;;14.40;78.20;;;;;;5099545;27;20224;-90
2021/10/26 11:15:43;;;;;;;8.60;7.45;;;14.00;79.70;;;;;;5093905;28;20272;-90
2021/10/26 11:18:10;;;;;;;9.10;7.32;;;13.90;82.20;;;;;;5101879;28;20226;-90
2021/10/26 11:20:49;;;;;;;12.43;7.68;;;13.80;83.30;;;;;;5099769;28;20200;-89
2021/10/26 11:23:33;;;;;;;9.02;7.05;;;13.70;82.70;;;;;;5088909;28;20248;-90
2021/10/26 11:26:05;;;;;;;12.57;6.97;;;14.00;81.50;;;;;;5107683;28;20196;-89
2021/10/26 11:28:57;;;;;;;10.38;6.97;;;14.20;79.10;;;;;;5088273;28;20225;-90
2021/10/26 11:31:27;;;;;;;12.85;7.20;;;14.40;76.90;;;;;;5096861;28;20239;-89
2021/10/26 11:34:16;;;;;;;12.13;6.57;;;14.40;77.30;;;;;;5095024;28;20235;-87
2021/10/26 11:36:43;;;;;;;9.18;7.03;;;14.20;78.90;;;;;;5088087;28;20231;-89
2021/10/26 11:39:17;;;;;;;8.60;7.05;;;13.90;80.30;;;;;;5091967;28;20258;-89
2021/10/26 11:41:46;;;;;;;9.15;6.63;;;13.60;81.10;;;;;;5096358;28;20774;-90
2021/10/26 11:44:17;;;;;;;9.10;7.03;;;13.50;83.60;;;;;;5090016;28;20204;-88
2021/10/26 11:46:46;;;;;;;9.50;6.40;;;13.50;84.30;;;;;;5090737;28;20229;-89
2021/10/26 11:49:23;;;;;;;11.70;6.90;;;13.70;83.00;;;;;;5090063;28;20196;-89
2021/10/26 11:51:54;;;;;;;11.40;7.38;;;13.90;82.70;;;;;;5084994;28;20212;-89
2021/10/26 11:54:23;;;;;;;7.75;6.43;;;13.90;80.90;;;;;;5085526;28;20197;-89
2021/10/26 11:56:54;;;;;;;9.57;6.75;;;13.90;81.70;;;;;;5098721;28;20228;-89
2021/10/26 11:59:34;;;;;;;8.05;6.40;;;13.90;81.60;;;;;;5093978;28;20185;-88
2021/10/26 12:02:10;;;;;;;9.85;6.93;;;13.60;82.50;;;;;;5084645;28;20232;-88
2021/10/26 12:04:39;;;;;;;10.10;6.93;;;13.50;83.60;;;;;;5099051;28;20199;-89
2021/10/26 12:07:08;;;;;;;10.35;7.47;;;13.30;84.80;;;;;;5098098;28;20239;-88
2021/10/26 12:09:37;;;;;;;7.32;6.45;;;13.10;85.50;;;;;;5090342;28;20223;-88
2021/10/26 12:12:10;;;;;;;9.55;7.68;;;13.10;86.40;;;;;;5100969;28;20247;-89
2021/10/26 12:14:37;;;;;;;9.52;6.63;;;13.10;86.70;;;;;;5090314;28;20202;-88
2021/10/26 12:17:25;;;;;;;8.45;6.32;;;13.20;87.50;;;;;;5093382;28;20226;-88
2021/10/26 12:20:00;;;;;;;8.98;6.93;;;13.40;88.30;;;;;;5091994;28;20251;-88
2021/10/26 12:22:31;;;;;;;9.88;6.90;;;13.60;87.30;;;;;;5086209;28;20231;-89
2021/10/26 12:25:09;;;;;;;7.88;6.20;;;14.00;85.30;;;;;;5092087;28;20197;-88
2021/10/26 12:27:40;;;;;;;8.25;6.30;;;14.40;79.90;;;;;;5085200;28;20601;-88
2021/10/26 12:30:24;;;;;;;8.07;6.30;;;14.70;79.10;;;;;;5091022;28;20188;-88
2021/10/26 12:32:55;;;;;;;9.80;6.32;;;14.60;79.60;;;;;;5093357;28;20224;-88
2021/10/26 12:35:23;;;;;;;8.93;6.13;;;14.70;77.50;;;;;;5085693;28;20189;-90
2021/10/26 12:37:51;;;;;;;8.65;6.15;;;14.70;77.10;;;;;;5087163;28;20267;-88
2021/10/26 12:40:20;;;;;;;9.18;6.28;;;14.70;77.10;;;;;;5088461;28;20205;-89
2021/10/26 12:43:00;;;;;;;10.30;6.00;;;14.50;78.30;;;;;;5092071;28;20235;-89
2021/10/26 12:45:34;;;;;;;8.70;4.93;;;14.30;79.10;;;;;;5077311;28;20274;-88
2021/10/26 12:48:04;;;;;;;8.68;5.30;;;14.00;77.50;;;;;;5079172;28;20224;-88
2021/10/26 12:50:42;;;;;;;8.38;4.80;;;13.90;77.80;;;;;;5089105;28;20201;-88
2021/10/26 12:53:37;;;;;;;5.80;4.30;;;13.60;79.50;;;;;;5088820;28;20296;-89
2021/10/26 12:56:17;;;;;;;6.45;4.22;;;13.60;81.50;;;;;;5091751;28;20199;-88
2021/10/26 12:58:47;;;;;;;7.38;4.50;;;13.60;81.00;;;;;;5087444;28;21251;-88
2021/10/26 13:01:29;;;;;;;6.97;4.75;;;13.80;79.70;;;;;;5094179;28;20200;-88
2021/10/26 13:04:07;;;;;;;6.95;4.20;;;14.00;79.30;;;;;;5095437;28;20224;-88
2021/10/26 13:06:36;;;;;;;4.82;3.92;;;14.10;76.60;;;;;;5086494;28;20252;-88
2021/10/26 13:09:06;;;;;;;6.22;4.00;;;14.50;76.30;;;;;;5088626;28;20228;-88
2021/10/26 13:11:35;;;;;;;7.03;4.03;;;14.60;73.80;;;;;;5085706;28;20224;-88
2021/10/26 13:14:11;;;;;;;6.05;3.92;;;14.70;72.10;;;;;;5081853;28;20226;-89
2021/10/26 13:16:41;;;;;;;6.10;3.40;;;14.80;69.50;;;;;;5082087;28;20236;-89
2021/10/26 13:19:21;;;;;;;8.65;3.72;;;14.50;70.00;;;;;;5080728;28;20701;-89
2021/10/26 13:21:50;;;;;;;6.30;3.80;;;14.60;70.30;;;;;;5082254;28;20234;-89